Inicio METAR Ruta Wind Satelite

Informe Meteorológico

Fecha: 2020/11/30 15:13:38 Local
2020.11.30 20:13 UTC


Estado: VENCIDO
Operación:
Puerto Asis, Colombia (SKAS) 00-30N 076-30W
2020.08.08 2000 UTC
Wind: from the N (350 degrees) at 6 MPH (5 KT):0
Visibility: greater than 7 mile(s):0
Sky conditions: overcast
Temperature: 75 F (24 C)
Dew Point: 68 F (20 C)
Relative Humidity: 78%
Pressure (altimeter): 30.03 in. Hg (1016 hPa)
ob: SKAS 082000Z 35005KT 9999 FEW020 OVC080 24/20 A3003
cycle: 20